Brayton, Nebraska
Current Conditions -  °F | °C
As of 4:35 PM on Sunday 25 Jan 2015 (Local Time) from KBVN Reporting Station
Overcast Overcast  
Wind Chill: 35°   Ceiling: 2200
Heat Index: 40°   Visibility: 10mi
Dew Point: 33°   Wind: 7mph
Humidity: 77%   Direction: 310°NW
Pressure: 30.06"   Gusts: NA
Location:  41.471°N, 98.3757°W
Report Text: KBVN 252235Z AUTO 31006KT 10SM SCT015 BKN022 OVC039 04/01 A3006 RMK AO2 T00420005
Loading
Personal Weather Stations






























Interactive Weather Map New forecast layout! Learn more

10-Day Weather Forecast

Advertisements
Track Severe Weather on mobile